Time;durP1;ratioP1;P1;durP2;ratioP2;P2;SDS_P1;SDS_P2;PMS_P1;PMS_P2;Temp;Humidity;BMP_temperature;BMP_pressure;BME280_temperature;BME280_humidity;BME280_pressure;Samples;Min_cycle;Max_cycle;Signal;HPM_P1;HPM_P2
2024/04/03 00:01:04;;;;;;;6.95;1.00;;;28.80;36.90;;;;;;5010852;28;20087;-53
2024/04/03 00:03:30;;;;;;;2.83;0.50;;;28.80;36.20;;;;;;5010593;28;20081;-52
2024/04/03 00:05:57;;;;;;;1.17;0.60;;;28.60;36.70;;;;;;5009449;28;20109;-51
2024/04/03 00:08:23;;;;;;;1.30;0.65;;;28.50;35.70;;;;;;5009880;28;20070;-52
2024/04/03 00:10:50;;;;;;;2.95;0.63;;;28.60;35.80;;;;;;5009077;28;20164;-53
2024/04/03 00:13:16;;;;;;;3.33;0.60;;;28.30;35.90;;;;;;5010746;28;20070;-54
2024/04/03 00:15:42;;;;;;;2.92;0.77;;;28.20;36.00;;;;;;5009680;28;20061;-54
2024/04/03 00:18:09;;;;;;;1.92;0.73;;;28.30;36.40;;;;;;5010225;28;20073;-54
2024/04/03 00:20:37;;;;;;;2.50;0.65;;;28.30;36.20;;;;;;5008847;28;20529;-55
2024/04/03 00:23:03;;;;;;;1.05;0.80;;;28.30;36.90;;;;;;5009628;28;20079;-55
2024/04/03 00:25:30;;;;;;;0.90;0.55;;;28.20;36.10;;;;;;5007975;28;20090;-55
2024/04/03 00:27:57;;;;;;;2.00;0.60;;;28.00;36.80;;;;;;5009782;28;20125;-55
2024/04/03 00:30:23;;;;;;;1.20;0.73;;;28.00;37.30;;;;;;5006761;28;20083;-54
2024/04/03 00:32:49;;;;;;;4.25;1.23;;;27.80;38.10;;;;;;5008538;28;20381;-56
2024/04/03 00:35:16;;;;;;;1.98;0.60;;;27.80;37.60;;;;;;5009040;28;20497;-54
2024/04/03 00:37:42;;;;;;;2.85;0.80;;;27.70;38.00;;;;;;5007540;28;20070;-57
2024/04/03 00:40:10;;;;;;;1.27;0.77;;;27.60;37.30;;;;;;5008877;28;20132;-55
2024/04/03 00:42:36;;;;;;;2.53;0.80;;;27.50;37.50;;;;;;5009106;28;20118;-53
2024/04/03 00:45:03;;;;;;;1.25;0.80;;;27.40;37.90;;;;;;5008287;28;20106;-56
2024/04/03 00:47:29;;;;;;;4.47;0.90;;;27.40;37.50;;;;;;5009985;28;20074;-52
2024/04/03 00:49:57;;;;;;;4.22;1.00;;;27.40;38.10;;;;;;5006895;28;20097;-53
2024/04/03 00:52:24;;;;;;;2.13;0.75;;;27.60;38.30;;;;;;5009020;28;20517;-55
2024/04/03 00:54:51;;;;;;;2.97;0.57;;;27.50;37.70;;;;;;5008573;28;20165;-53
2024/04/03 00:57:17;;;;;;;3.03;0.80;;;27.40;37.50;;;;;;5009037;28;20110;-55
2024/04/03 00:59:44;;;;;;;1.80;1.23;;;27.30;37.60;;;;;;5009834;28;20067;-55
2024/04/03 01:02:11;;;;;;;2.97;0.82;;;27.10;37.60;;;;;;5008637;28;20070;-54
2024/04/03 01:04:37;;;;;;;1.88;0.75;;;27.10;37.40;;;;;;5009124;28;20181;-55
2024/04/03 01:07:07;;;;;;;2.05;0.52;;;27.00;38.00;;;;;;4991823;28;20070;-52
2024/04/03 01:09:34;;;;;;;1.38;0.60;;;27.00;37.80;;;;;;4991531;28;20516;-54
2024/04/03 01:12:02;;;;;;;2.30;0.90;;;26.90;37.60;;;;;;5009440;28;20413;-54
2024/04/03 01:14:28;;;;;;;4.63;0.90;;;26.90;37.10;;;;;;4991794;28;20072;-56
2024/04/03 01:16:56;;;;;;;4.00;0.93;;;27.00;37.50;;;;;;5008122;28;20120;-52
2024/04/03 01:19:22;;;;;;;1.35;0.60;;;27.20;36.60;;;;;;5007292;28;20081;-50
2024/04/03 01:21:49;;;;;;;3.97;0.52;;;27.60;36.60;;;;;;5007279;28;20066;-55
2024/04/03 01:24:20;;;;;;;1.20;0.57;;;27.50;36.90;;;;;;5009071;28;20093;-55
2024/04/03 01:26:48;;;;;;;5.35;0.85;;;27.00;37.80;;;;;;4990718;28;20070;-55
2024/04/03 01:29:14;;;;;;;1.83;0.80;;;26.60;38.00;;;;;;5008413;28;20074;-53
2024/04/03 01:31:41;;;;;;;5.35;0.90;;;26.30;38.30;;;;;;5005572;28;20120;-52
2024/04/03 01:34:07;;;;;;;6.07;0.82;;;26.00;38.30;;;;;;4990859;28;20079;-53
2024/04/03 01:36:34;;;;;;;2.80;0.88;;;25.90;39.30;;;;;;5006251;28;20583;-51
2024/04/03 01:39:00;;;;;;;3.35;0.90;;;25.80;39.10;;;;;;5008389;28;20070;-53
2024/04/03 01:41:27;;;;;;;6.10;1.00;;;25.70;39.40;;;;;;5007590;28;20077;-53
2024/04/03 01:43:53;;;;;;;2.85;0.90;;;25.60;41.20;;;;;;5008668;28;20610;-55
2024/04/03 01:46:19;;;;;;;4.40;0.80;;;25.40;40.40;;;;;;5007447;28;20133;-53
2024/04/03 01:48:46;;;;;;;4.18;2.40;;;25.30;40.50;;;;;;4989563;28;20070;-57
2024/04/03 01:51:12;;;;;;;1.77;1.42;;;25.20;40.80;;;;;;5007926;28;20264;-51
2024/04/03 01:53:39;;;;;;;3.33;1.13;;;25.00;40.60;;;;;;5008967;28;20089;-53
2024/04/03 01:56:05;;;;;;;4.97;1.20;;;24.90;40.60;;;;;;5006515;28;20121;-56
2024/04/03 01:58:32;;;;;;;7.20;1.30;;;24.90;41.10;;;;;;5008546;28;20074;-55
2024/04/03 02:00:58;;;;;;;2.65;0.93;;;24.90;41.60;;;;;;4990396;28;20533;-53
2024/04/03 02:03:25;;;;;;;8.98;1.35;;;24.80;41.50;;;;;;5008675;28;20071;-53
2024/04/03 02:05:51;;;;;;;6.00;1.20;;;24.70;41.80;;;;;;5006400;28;20102;-54
2024/04/03 02:08:18;;;;;;;5.82;1.67;;;24.60;41.60;;;;;;4989778;28;20106;-56
2024/04/03 02:10:44;;;;;;;5.18;1.80;;;24.60;41.90;;;;;;5008600;28;20066;-52
2024/04/03 02:13:11;;;;;;;7.22;2.20;;;24.50;41.80;;;;;;5008045;28;20512;-53
2024/04/03 02:15:38;;;;;;;6.50;2.10;;;24.40;42.20;;;;;;5007867;28;20201;-55
2024/04/03 02:18:05;;;;;;;12.60;2.17;;;24.40;42.60;;;;;;5006510;28;20467;-58
2024/04/03 02:20:33;;;;;;;9.82;2.30;;;24.30;43.20;;;;;;5007491;28;20161;-53
2024/04/03 02:22:59;;;;;;;9.30;2.35;;;24.10;43.90;;;;;;4989469;28;20542;-55
2024/04/03 02:25:26;;;;;;;13.85;2.30;;;24.00;43.60;;;;;;5008331;28;20098;-52
2024/04/03 02:27:53;;;;;;;12.73;2.30;;;24.00;43.50;;;;;;5006519;28;20075;-51
2024/04/03 02:30:21;;;;;;;13.18;2.72;;;23.90;44.20;;;;;;5006523;28;20596;-52
2024/04/03 02:32:48;;;;;;;8.73;1.95;;;23.80;44.60;;;;;;5007359;28;20082;-52
2024/04/03 02:35:15;;;;;;;7.22;1.52;;;23.70;45.40;;;;;;5008100;28;20563;-54
2024/04/03 02:37:41;;;;;;;5.13;1.20;;;23.60;45.60;;;;;;5006653;28;20098;-54
2024/04/03 02:40:08;;;;;;;8.10;1.80;;;23.50;46.10;;;;;;5007549;28;20535;-53
2024/04/03 02:42:34;;;;;;;9.05;1.83;;;23.40;46.00;;;;;;4989220;28;20475;-54
2024/04/03 02:45:01;;;;;;;9.98;1.63;;;23.30;46.30;;;;;;5004867;28;20094;-55
2024/04/03 02:47:27;;;;;;;7.63;2.35;;;23.20;46.30;;;;;;5008808;28;20158;-56
2024/04/03 02:49:54;;;;;;;8.20;2.00;;;23.10;46.60;;;;;;4991368;28;20404;-55
2024/04/03 02:52:20;;;;;;;15.82;2.65;;;23.10;47.30;;;;;;5010389;28;20408;-55
2024/04/03 02:54:47;;;;;;;13.50;2.53;;;22.90;47.30;;;;;;5010100;28;20516;-56
2024/04/03 02:57:14;;;;;;;13.73;2.55;;;22.90;47.50;;;;;;4993618;28;20098;-51
2024/04/03 02:59:42;;;;;;;11.20;2.95;;;22.80;47.70;;;;;;5011612;28;21048;-55
2024/04/03 03:02:08;;;;;;;10.07;3.13;;;22.70;48.30;;;;;;5010557;28;20479;-55
2024/04/03 03:04:43;;;;;;;9.00;3.15;;;22.60;47.90;;;;;;5009484;28;20460;-53
2024/04/03 03:07:10;;;;;;;13.65;3.45;;;22.50;48.70;;;;;;5010517;28;20196;-53
2024/04/03 03:09:37;;;;;;;10.38;3.42;;;22.40;48.80;;;;;;5010063;28;20074;-51
2024/04/03 03:12:04;;;;;;;14.07;4.07;;;22.30;49.90;;;;;;5010345;28;20082;-53
2024/04/03 03:14:30;;;;;;;13.90;4.32;;;22.20;51.20;;;;;;5011511;28;20074;-53
2024/04/03 03:16:57;;;;;;;23.05;5.00;;;22.20;51.50;;;;;;5010527;28;20074;-53
2024/04/03 03:19:24;;;;;;;20.85;4.85;;;22.10;51.70;;;;;;5010976;28;20081;-54
2024/04/03 03:21:50;;;;;;;25.67;5.78;;;22.00;53.40;;;;;;4992715;28;20074;-54
2024/04/03 03:24:19;;;;;;;23.05;5.78;;;21.90;54.20;;;;;;5010481;28;20102;-55
2024/04/03 03:26:46;;;;;;;15.38;5.40;;;21.90;53.90;;;;;;5010169;28;20063;-54
2024/04/03 03:29:12;;;;;;;24.77;5.90;;;21.80;53.40;;;;;;5011628;28;20187;-53
2024/04/03 03:31:39;;;;;;;12.32;5.20;;;21.80;53.50;;;;;;5008487;28;20105;-56
2024/04/03 03:34:05;;;;;;;22.27;4.93;;;21.70;53.80;;;;;;5010161;28;20078;-56
2024/04/03 03:36:32;;;;;;;22.63;6.85;;;21.60;54.10;;;;;;5009352;28;20071;-55
2024/04/03 03:38:58;;;;;;;40.13;11.35;;;21.50;54.50;;;;;;5010466;28;20071;-57
2024/04/03 03:41:25;;;;;;;43.17;12.43;;;21.40;54.90;;;;;;5009705;28;20105;-55
2024/04/03 03:43:51;;;;;;;39.65;10.15;;;21.80;55.30;;;;;;5009958;28;20102;-57
2024/04/03 03:46:19;;;;;;;46.58;8.63;;;23.60;53.10;;;;;;5009385;28;20578;-58
2024/04/03 03:54:16;;;;;;;36.45;7.70;;;24.70;49.30;;;;;;5009784;28;20175;-58
2024/04/03 03:56:42;;;;;;;73.05;8.95;;;24.70;50.20;;;;;;5008479;28;20082;-50
2024/04/03 03:59:09;;;;;;;41.35;9.00;;;24.60;50.20;;;;;;4990279;28;20086;-59
2024/04/03 04:01:35;;;;;;;51.03;10.15;;;24.30;49.70;;;;;;4985594;28;20133;-59
2024/04/03 04:04:02;;;;;;;128.23;12.50;;;24.20;50.60;;;;;;5010444;28;20099;-60
2024/04/03 04:06:28;;;;;;;85.82;11.45;;;24.80;50.40;;;;;;5010539;28;20157;-58
2024/04/03 04:08:55;;;;;;;78.03;11.68;;;25.00;50.10;;;;;;5008034;28;20066;-60
2024/04/03 04:11:21;;;;;;;57.47;12.43;;;25.00;50.90;;;;;;5009257;28;20140;-59
2024/04/03 04:13:49;;;;;;;287.45;27.42;;;24.70;50.80;;;;;;5008921;28;20075;-59
2024/04/03 04:16:16;;;;;;;116.40;15.80;;;24.10;50.80;;;;;;4992541;28;20062;-59
2024/04/03 04:18:45;;;;;;;82.38;13.32;;;24.00;52.10;;;;;;5008751;28;20129;-59
2024/04/03 04:21:11;;;;;;;53.47;10.30;;;24.00;52.40;;;;;;5009580;28;20078;-60
2024/04/03 04:23:38;;;;;;;48.83;9.32;;;24.00;52.90;;;;;;5010316;28;20110;-59
2024/04/03 04:26:04;;;;;;;40.28;8.52;;;23.60;53.20;;;;;;5008456;28;20184;-59
2024/04/03 04:28:34;;;;;;;49.47;9.65;;;23.20;53.50;;;;;;4990274;28;20483;-61
2024/04/03 04:31:04;;;;;;;65.40;9.77;;;23.10;52.80;;;;;;5010219;28;20097;-60
2024/04/03 04:33:32;;;;;;;50.33;9.77;;;23.00;53.20;;;;;;5009843;28;20154;-61
2024/04/03 04:36:00;;;;;;;67.63;9.65;;;22.90;52.80;;;;;;5009748;28;20066;-61
2024/04/03 04:38:28;;;;;;;66.18;12.23;;;22.90;54.10;;;;;;5007732;28;20067;-64
2024/04/03 04:40:58;;;;;;;94.90;13.88;;;22.90;53.50;;;;;;5010544;28;20149;-59
2024/04/03 04:43:27;;;;;;;93.10;18.02;;;22.90;54.60;;;;;;4988500;28;20121;-59
2024/04/03 04:46:04;;;;;;;96.78;18.30;;;23.00;53.50;;;;;;4990060;28;20153;-60
2024/04/03 04:48:32;;;;;;;95.68;20.98;;;23.00;54.10;;;;;;4989801;28;20074;-61
2024/04/03 04:51:01;;;;;;;104.13;21.75;;;23.00;53.40;;;;;;4988582;28;20063;-62
2024/04/03 04:53:28;;;;;;;99.25;20.58;;;23.10;53.50;;;;;;4990114;28;20552;-61
2024/04/03 04:55:58;;;;;;;96.22;21.45;;;23.00;52.40;;;;;;4988890;28;20078;-60
2024/04/03 04:58:25;;;;;;;109.65;21.65;;;22.80;52.70;;;;;;4986753;28;20066;-61
2024/04/03 05:01:02;;;;;;;113.20;26.30;;;22.90;52.40;;;;;;4987337;28;20476;-60
2024/04/03 05:03:29;;;;;;;97.05;23.38;;;22.50;50.50;;;;;;4988285;28;20089;-59
2024/04/03 05:05:56;;;;;;;107.28;23.10;;;22.20;52.50;;;;;;4988465;28;20102;-62
2024/04/03 05:08:23;;;;;;;83.43;21.27;;;22.30;52.30;;;;;;4988794;28;20186;-59
2024/04/03 05:10:59;;;;;;;82.28;21.17;;;22.10;50.90;;;;;;4989407;28;20105;-61
2024/04/03 05:13:34;;;;;;;85.50;21.60;;;22.10;50.60;;;;;;4989330;28;20077;-60
2024/04/03 05:16:14;;;;;;;80.53;22.88;;;22.20;51.50;;;;;;4988347;28;20124;-60
2024/04/03 05:18:44;;;;;;;87.07;22.13;;;22.10;52.50;;;;;;4988245;28;20109;-59
2024/04/03 05:21:12;;;;;;;87.40;20.13;;;22.10;51.90;;;;;;4989245;28;20071;-60
2024/04/03 05:23:38;;;;;;;75.45;21.33;;;22.00;51.50;;;;;;4987757;28;20067;-60
2024/04/03 05:26:10;;;;;;;63.05;20.25;;;21.90;52.50;;;;;;4989396;28;20186;-59
2024/04/03 05:28:36;;;;;;;71.30;20.38;;;21.80;53.40;;;;;;4985787;28;20081;-59
2024/04/03 05:31:04;;;;;;;67.95;20.02;;;21.70;52.50;;;;;;4987940;28;20090;-60
2024/04/03 05:33:34;;;;;;;65.18;21.48;;;21.60;53.10;;;;;;4988468;28;20162;-60
2024/04/03 05:36:02;;;;;;;71.15;20.67;;;21.60;53.80;;;;;;4987185;28;20176;-60
2024/04/03 05:38:28;;;;;;;74.07;20.25;;;21.40;53.60;;;;;;4986757;28;20079;-60
2024/04/03 05:40:56;;;;;;;76.35;20.65;;;21.30;53.90;;;;;;4988993;28;20120;-60
2024/04/03 05:43:24;;;;;;;66.07;20.27;;;21.20;54.10;;;;;;4987161;28;20161;-60
2024/04/03 05:45:57;;;;;;;75.80;20.20;;;21.20;55.00;;;;;;4985820;28;20217;-59
2024/04/03 05:48:26;;;;;;;75.95;20.90;;;20.90;54.40;;;;;;4988542;28;20082;-60
2024/04/03 05:51:05;;;;;;;79.05;21.02;;;20.70;54.50;;;;;;4987051;28;20066;-59
2024/04/03 05:53:33;;;;;;;72.63;21.35;;;20.70;54.60;;;;;;4987602;28;20157;-59
2024/04/03 05:56:01;;;;;;;72.97;20.88;;;20.70;57.20;;;;;;4987475;28;20170;-59
2024/04/03 05:58:29;;;;;;;78.78;21.92;;;20.70;55.90;;;;;;4986720;28;20093;-59
2024/04/03 06:00:58;;;;;;;63.35;20.27;;;20.60;56.40;;;;;;4989225;28;20118;-59
2024/04/03 06:03:24;;;;;;;58.85;19.92;;;20.50;55.30;;;;;;4989030;28;20081;-60
2024/04/03 06:05:56;;;;;;;72.45;20.58;;;20.40;56.60;;;;;;4986593;28;20542;-59
2024/04/03 06:08:22;;;;;;;56.63;19.83;;;20.50;58.20;;;;;;4986785;28;20141;-60
2024/04/03 06:10:51;;;;;;;81.72;21.67;;;20.30;58.50;;;;;;4987690;28;20070;-59
2024/04/03 06:13:18;;;;;;;83.50;30.48;;;20.10;58.90;;;;;;4987187;28;20497;-59
2024/04/03 06:15:46;;;;;;;74.40;25.27;;;19.90;58.80;;;;;;4985677;28;20067;-59
2024/04/03 06:18:14;;;;;;;69.68;23.33;;;19.90;59.30;;;;;;4985961;28;20471;-59
2024/04/03 06:20:47;;;;;;;67.80;20.85;;;19.90;59.60;;;;;;4986844;28;20097;-58
2024/04/03 06:23:14;;;;;;;53.55;19.17;;;19.80;58.80;;;;;;4988578;28;20880;-60
2024/04/03 06:25:40;;;;;;;67.80;19.45;;;19.80;59.00;;;;;;4991215;28;20099;-60
2024/04/03 06:28:08;;;;;;;71.68;19.50;;;19.90;60.90;;;;;;4989329;28;20071;-59
2024/04/03 06:30:35;;;;;;;86.35;19.67;;;20.00;59.90;;;;;;4990632;28;20070;-60
2024/04/03 06:33:01;;;;;;;61.58;18.73;;;19.80;58.00;;;;;;4990876;28;20081;-60
2024/04/03 06:35:27;;;;;;;78.43;18.38;;;19.60;57.40;;;;;;4990575;28;20066;-59
2024/04/03 06:37:54;;;;;;;54.33;18.33;;;19.50;57.80;;;;;;4990846;28;20089;-60
2024/04/03 06:40:20;;;;;;;58.25;17.67;;;19.40;58.30;;;;;;4990679;28;20536;-59
2024/04/03 06:42:47;;;;;;;73.70;18.08;;;19.40;60.00;;;;;;4913311;28;2317252;-59
2024/04/03 06:45:14;;;;;;;51.33;17.52;;;19.60;59.70;;;;;;5010173;28;20583;-59
2024/04/03 06:47:40;;;;;;;58.95;17.88;;;19.70;59.50;;;;;;5011674;28;20085;-59
2024/04/03 06:50:07;;;;;;;52.20;16.40;;;19.70;59.40;;;;;;5011713;28;20397;-59
2024/04/03 06:52:34;;;;;;;60.45;18.52;;;19.80;60.00;;;;;;5011678;28;20087;-58
2024/04/03 06:55:01;;;;;;;46.10;17.13;;;19.60;61.20;;;;;;5010086;28;20080;-59
2024/04/03 06:57:27;;;;;;;54.78;18.70;;;19.30;60.00;;;;;;5011704;28;20070;-59
2024/04/03 06:59:54;;;;;;;64.15;18.50;;;19.20;60.70;;;;;;5011496;28;20078;-58
2024/04/03 07:02:21;;;;;;;63.40;19.85;;;19.00;61.30;;;;;;5010404;28;20094;-57
2024/04/03 07:04:48;;;;;;;53.78;19.08;;;18.90;61.70;;;;;;5009111;28;20110;-60
2024/04/03 07:07:14;;;;;;;57.58;19.50;;;18.80;61.60;;;;;;5011696;28;20113;-60
2024/04/03 07:09:41;;;;;;;60.72;19.17;;;18.70;61.60;;;;;;5010346;28;20132;-59
2024/04/03 07:12:07;;;;;;;50.67;18.88;;;18.60;61.00;;;;;;5010950;28;20076;-59
2024/04/03 07:14:34;;;;;;;49.40;20.23;;;18.60;61.90;;;;;;5010552;28;20070;-59
2024/04/03 07:17:00;;;;;;;57.97;20.30;;;18.50;63.30;;;;;;4992777;28;20070;-59
2024/04/03 07:19:27;;;;;;;53.33;19.85;;;18.60;62.70;;;;;;5011320;28;20070;-60
2024/04/03 07:21:54;;;;;;;53.25;20.55;;;18.50;63.10;;;;;;5009781;28;20106;-60
2024/04/03 07:24:20;;;;;;;49.97;19.08;;;18.40;62.80;;;;;;5008935;28;20082;-59
2024/04/03 07:26:48;;;;;;;61.03;19.45;;;18.40;62.40;;;;;;5008578;28;20070;-59
2024/04/03 07:29:15;;;;;;;51.38;19.05;;;18.30;62.60;;;;;;4991086;28;20070;-59
2024/04/03 07:31:42;;;;;;;50.95;19.50;;;18.40;64.00;;;;;;4991150;28;20077;-59
2024/04/03 07:34:08;;;;;;;59.80;20.30;;;18.40;64.20;;;;;;5009433;28;20110;-59
2024/04/03 07:36:37;;;;;;;56.35;21.55;;;18.40;64.30;;;;;;4992712;28;20078;-59
2024/04/03 07:39:04;;;;;;;47.83;20.10;;;18.30;65.80;;;;;;5009100;28;20190;-59
2024/04/03 07:41:32;;;;;;;62.42;20.75;;;18.10;65.20;;;;;;4993571;28;20082;-59
2024/04/03 07:43:59;;;;;;;63.55;20.77;;;18.20;65.90;;;;;;5009618;28;20111;-59
2024/04/03 07:46:26;;;;;;;58.03;20.42;;;18.20;66.30;;;;;;5010822;28;20094;-59
2024/04/03 07:48:52;;;;;;;54.58;20.85;;;18.10;64.80;;;;;;5011149;28;20079;-60
2024/04/03 07:51:19;;;;;;;61.28;20.67;;;17.90;65.60;;;;;;4993349;28;20078;-59
2024/04/03 07:53:45;;;;;;;49.13;20.83;;;18.00;66.30;;;;;;4989334;28;20121;-58
2024/04/03 07:56:15;;;;;;;54.03;22.58;;;17.80;66.90;;;;;;4992134;28;20066;-59
2024/04/03 07:58:42;;;;;;;59.08;23.38;;;17.60;66.60;;;;;;5010294;28;20078;-59
2024/04/03 08:01:09;;;;;;;53.95;22.70;;;17.60;67.30;;;;;;5010682;28;20075;-60
2024/04/03 08:03:37;;;;;;;62.58;22.52;;;17.70;65.80;;;;;;4992800;28;20105;-59
2024/04/03 08:06:05;;;;;;;73.88;23.50;;;17.80;66.80;;;;;;4992346;28;20155;-59
2024/04/03 08:08:32;;;;;;;64.10;23.52;;;17.90;67.10;;;;;;5010417;28;20100;-59
2024/04/03 08:11:02;;;;;;;68.18;23.95;;;17.90;67.10;;;;;;5010153;28;20086;-59
2024/04/03 08:13:29;;;;;;;75.90;24.17;;;17.90;66.50;;;;;;5008485;28;20071;-59
2024/04/03 08:16:06;;;;;;;59.83;24.45;;;17.70;67.90;;;;;;5009955;28;20071;-59
2024/04/03 08:18:33;;;;;;;87.72;27.70;;;17.70;68.20;;;;;;4991937;28;20074;-60
2024/04/03 08:21:11;;;;;;;68.75;28.13;;;17.70;67.50;;;;;;4990795;28;20432;-60
2024/04/03 08:23:38;;;;;;;69.80;28.65;;;17.90;66.40;;;;;;4992056;28;20087;-60
2024/04/03 08:26:09;;;;;;;91.25;29.13;;;18.00;66.30;;;;;;4992670;28;20098;-59
2024/04/03 08:28:42;;;;;;;64.32;27.05;;;17.80;64.40;;;;;;5008950;28;20087;-58
2024/04/03 08:31:16;;;;;;;74.65;27.08;;;17.70;64.20;;;;;;5009741;28;20101;-59
2024/04/03 08:33:44;;;;;;;63.47;25.95;;;17.60;64.80;;;;;;5008403;28;20128;-60
2024/04/03 08:36:10;;;;;;;63.75;26.38;;;17.50;66.10;;;;;;5009579;28;20087;-59
2024/04/03 08:38:38;;;;;;;68.13;28.50;;;17.50;65.80;;;;;;4991861;28;20074;-60
2024/04/03 08:41:05;;;;;;;69.40;28.05;;;17.50;66.00;;;;;;5010267;28;20170;-58
2024/04/03 08:43:34;;;;;;;64.53;29.25;;;17.50;67.00;;;;;;4990555;28;20168;-59
2024/04/03 08:46:00;;;;;;;67.10;28.38;;;17.50;67.80;;;;;;5008365;28;20094;-59
2024/04/03 08:48:29;;;;;;;59.15;26.75;;;17.40;68.10;;;;;;5009480;28;20094;-58
2024/04/03 08:50:56;;;;;;;59.65;25.33;;;17.20;68.50;;;;;;4990618;28;20071;-60
2024/04/03 08:53:24;;;;;;;65.15;26.45;;;17.30;68.00;;;;;;5009841;28;20070;-59
2024/04/03 08:55:55;;;;;;;55.22;22.58;;;17.40;66.50;;;;;;5007398;28;20082;-58
2024/04/03 08:58:22;;;;;;;53.08;24.00;;;17.40;67.80;;;;;;5008159;28;20216;-58
2024/04/03 09:00:50;;;;;;;62.28;24.05;;;17.40;67.40;;;;;;5007183;28;20123;-58
2024/04/03 09:03:17;;;;;;;59.30;23.23;;;17.30;67.30;;;;;;5009306;28;20077;-59
2024/04/03 09:05:44;;;;;;;53.85;22.75;;;17.20;67.50;;;;;;5008639;28;20147;-58
2024/04/03 09:08:11;;;;;;;58.38;22.10;;;17.10;68.40;;;;;;5008156;28;20086;-59
2024/04/03 09:10:56;;;;;;;58.97;21.27;;;17.10;67.10;;;;;;5007487;28;20132;-59
2024/04/03 09:13:23;;;;;;;50.95;19.95;;;17.20;67.00;;;;;;5007622;28;20095;-59
2024/04/03 09:15:53;;;;;;;51.60;19.15;;;17.20;67.20;;;;;;5006102;28;20142;-59
2024/04/03 09:18:20;;;;;;;55.83;18.85;;;17.20;65.80;;;;;;4991422;28;20428;-58
2024/04/03 09:20:53;;;;;;;43.42;17.23;;;17.20;65.50;;;;;;5005419;28;20156;-58
2024/04/03 09:23:20;;;;;;;36.85;17.60;;;17.10;65.80;;;;;;5008411;28;20094;-59
2024/04/03 09:25:47;;;;;;;44.75;15.60;;;17.10;65.80;;;;;;5007153;28;20586;-59
2024/04/03 09:28:14;;;;;;;33.75;14.35;;;17.00;66.30;;;;;;5008354;28;20155;-58
2024/04/03 09:30:50;;;;;;;29.73;14.93;;;16.90;66.00;;;;;;5007172;28;20121;-58
2024/04/03 09:33:19;;;;;;;35.67;15.02;;;16.80;68.60;;;;;;5006870;28;20115;-59
2024/04/03 09:35:45;;;;;;;38.15;13.65;;;16.70;68.60;;;;;;5008951;28;20413;-58
2024/04/03 09:38:14;;;;;;;40.03;13.20;;;16.90;66.40;;;;;;5008180;28;20208;-59
2024/04/03 09:40:41;;;;;;;36.78;12.20;;;17.00;65.00;;;;;;5008936;28;20147;-58
2024/04/03 09:43:12;;;;;;;30.25;10.88;;;16.90;64.60;;;;;;5008575;28;20209;-58
2024/04/03 09:45:39;;;;;;;21.58;8.52;;;16.90;64.60;;;;;;4990144;28;20315;-58
2024/04/03 09:48:07;;;;;;;18.70;7.03;;;17.00;63.20;;;;;;5008374;28;20460;-58
2024/04/03 09:50:42;;;;;;;12.90;5.22;;;17.00;61.90;;;;;;5008194;28;20070;-58
2024/04/03 09:53:12;;;;;;;11.13;5.13;;;16.90;61.10;;;;;;5008887;28;20492;-58
2024/04/03 09:55:39;;;;;;;8.65;4.32;;;16.90;61.10;;;;;;5008173;28;20459;-58
2024/04/03 09:58:18;;;;;;;15.55;4.10;;;16.90;61.30;;;;;;5008188;28;20070;-58
2024/04/03 10:00:52;;;;;;;6.15;3.80;;;16.80;61.10;;;;;;5008521;28;20081;-58
2024/04/03 10:03:30;;;;;;;11.73;3.55;;;16.80;61.90;;;;;;5007068;28;20078;-59
2024/04/03 10:06:05;;;;;;;9.25;3.47;;;16.50;63.10;;;;;;5006829;28;20098;-58
2024/04/03 10:08:34;;;;;;;9.25;3.95;;;16.50;63.30;;;;;;5006349;28;20086;-58
2024/04/03 10:11:05;;;;;;;10.30;3.85;;;16.60;62.40;;;;;;5007808;28;20070;-59
2024/04/03 10:13:38;;;;;;;12.65;3.88;;;16.60;62.40;;;;;;4989249;28;20078;-61
2024/04/03 10:16:15;;;;;;;12.95;4.53;;;16.40;64.00;;;;;;5006637;28;20157;-59
2024/04/03 10:18:45;;;;;;;10.30;4.68;;;16.30;65.40;;;;;;4989919;28;20093;-58
2024/04/03 10:21:13;;;;;;;16.25;5.15;;;16.40;64.50;;;;;;5007808;28;20067;-59
2024/04/03 10:23:47;;;;;;;22.23;5.45;;;16.40;64.60;;;;;;5007593;28;20223;-59
2024/04/03 10:26:16;;;;;;;15.95;5.35;;;16.60;64.60;;;;;;5006672;28;20093;-59
2024/04/03 10:28:45;;;;;;;14.70;5.60;;;16.60;64.70;;;;;;4989001;28;20459;-60
2024/04/03 10:31:17;;;;;;;13.73;5.47;;;16.50;64.80;;;;;;5007239;28;20074;-59
2024/04/03 10:33:48;;;;;;;13.73;6.00;;;16.40;66.00;;;;;;5005442;28;20122;-59
2024/04/03 10:36:16;;;;;;;15.93;5.60;;;16.40;66.50;;;;;;5007157;28;20159;-59
2024/04/03 10:38:44;;;;;;;12.95;4.72;;;16.20;66.90;;;;;;5008800;28;20089;-59
2024/04/03 10:41:11;;;;;;;12.93;3.80;;;16.30;67.20;;;;;;5007283;28;20081;-59
2024/04/03 10:43:38;;;;;;;7.35;3.08;;;16.10;66.10;;;;;;5006302;28;20133;-59
2024/04/03 10:46:12;;;;;;;8.23;1.80;;;16.20;65.50;;;;;;5006769;28;20108;-59
2024/04/03 10:48:42;;;;;;;3.17;1.40;;;16.20;63.60;;;;;;5007599;28;20078;-58
2024/04/03 10:51:09;;;;;;;7.28;1.48;;;16.30;62.60;;;;;;5008047;28;20086;-59
2024/04/03 10:53:36;;;;;;;4.78;1.08;;;16.30;61.80;;;;;;5006715;28;20216;-59
2024/04/03 10:56:04;;;;;;;4.05;1.20;;;16.30;61.40;;;;;;5008189;28;20168;-59
2024/04/03 10:58:30;;;;;;;4.63;1.42;;;16.40;61.00;;;;;;5007917;28;20071;-59
2024/04/03 11:00:57;;;;;;;5.07;1.17;;;16.50;60.70;;;;;;5006487;28;20573;-59
2024/04/03 11:03:24;;;;;;;10.15;1.88;;;16.50;60.80;;;;;;5007794;28;20544;-59
2024/04/03 11:05:51;;;;;;;2.10;1.25;;;16.50;60.60;;;;;;5007020;28;20101;-58
2024/04/03 11:08:19;;;;;;;5.78;1.40;;;16.60;60.00;;;;;;5009435;28;20074;-58
2024/04/03 11:10:45;;;;;;;9.93;1.23;;;16.60;59.90;;;;;;4993475;28;20710;-58
2024/04/03 11:13:15;;;;;;;3.30;1.30;;;16.60;59.50;;;;;;5009662;28;20082;-58
2024/04/03 11:15:42;;;;;;;7.97;1.38;;;16.70;59.70;;;;;;5009211;28;20067;-59
2024/04/03 11:18:08;;;;;;;2.33;1.20;;;16.70;59.10;;;;;;5012022;28;20145;-59
2024/04/03 11:20:35;;;;;;;3.58;1.05;;;16.70;59.00;;;;;;5009853;28;20112;-58
2024/04/03 11:23:05;;;;;;;3.67;1.00;;;16.80;58.50;;;;;;5009163;28;20079;-59
2024/04/03 11:25:32;;;;;;;1.85;0.95;;;16.90;58.00;;;;;;4991542;28;20464;-58
2024/04/03 11:28:03;;;;;;;2.85;1.08;;;16.90;57.10;;;;;;5011131;28;20076;-59
2024/04/03 11:30:30;;;;;;;2.88;1.00;;;16.90;57.20;;;;;;5009548;28;20112;-59
2024/04/03 11:32:57;;;;;;;2.80;0.98;;;16.90;57.60;;;;;;5010747;28;20071;-59
2024/04/03 11:35:24;;;;;;;2.85;0.95;;;16.90;57.70;;;;;;4991163;28;20102;-58
2024/04/03 11:37:52;;;;;;;4.50;1.77;;;16.80;57.50;;;;;;5011165;28;20094;-58
2024/04/03 11:40:18;;;;;;;3.53;1.67;;;16.80;57.40;;;;;;5010701;28;20066;-60
2024/04/03 11:42:45;;;;;;;6.05;3.08;;;16.70;58.30;;;;;;5009568;28;20110;-58
2024/04/03 11:45:11;;;;;;;13.02;3.03;;;16.80;57.70;;;;;;5010040;28;20094;-59
2024/04/03 11:47:38;;;;;;;6.30;3.00;;;16.80;58.10;;;;;;5009072;28;20496;-59
2024/04/03 11:50:05;;;;;;;5.25;2.20;;;16.80;57.80;;;;;;5011189;28;20149;-58
2024/04/03 11:52:33;;;;;;;4.78;1.67;;;16.80;57.90;;;;;;5009522;28;20078;-60
2024/04/03 11:54:59;;;;;;;5.60;1.73;;;16.70;57.90;;;;;;5010726;28;20124;-58
2024/04/03 11:57:26;;;;;;;3.38;1.20;;;16.70;58.10;;;;;;5009670;28;20077;-58
2024/04/03 11:59:52;;;;;;;4.97;1.38;;;16.70;58.00;;;;;;5009721;28;20149;-58
2024/04/03 12:02:19;;;;;;;3.10;1.40;;;16.70;57.80;;;;;;5009247;28;20088;-59
2024/04/03 12:04:46;;;;;;;2.28;1.25;;;16.80;57.60;;;;;;5009092;28;20102;-58
2024/04/03 12:07:13;;;;;;;4.90;1.27;;;16.70;57.60;;;;;;5010020;28;20093;-58
2024/04/03 12:09:42;;;;;;;5.90;1.48;;;16.80;57.50;;;;;;5010056;28;20070;-59
2024/04/03 12:12:12;;;;;;;3.33;1.30;;;16.70;57.80;;;;;;5009595;28;21439;-58
2024/04/03 12:14:39;;;;;;;3.45;1.20;;;16.70;58.10;;;;;;5010331;28;20157;-58
2024/04/03 12:17:05;;;;;;;4.90;1.42;;;16.70;58.90;;;;;;5009329;28;20071;-58
2024/04/03 12:19:44;;;;;;;2.50;1.27;;;16.60;59.70;;;;;;5010086;28;20598;-58
2024/04/03 12:22:12;;;;;;;3.75;1.42;;;16.50;60.10;;;;;;5008055;28;20071;-58
2024/04/03 12:24:38;;;;;;;3.67;1.48;;;16.40;61.10;;;;;;4989833;28;20431;-59
2024/04/03 12:27:05;;;;;;;5.93;1.80;;;16.30;61.20;;;;;;5010284;28;20133;-59
2024/04/03 12:29:31;;;;;;;9.93;3.17;;;16.30;62.80;;;;;;5007604;28;20077;-59
2024/04/03 12:31:59;;;;;;;8.02;3.03;;;16.20;62.10;;;;;;4992002;28;20144;-58
2024/04/03 12:34:25;;;;;;;5.50;2.28;;;16.20;61.90;;;;;;5008569;28;20157;-58
2024/04/03 12:36:52;;;;;;;3.53;1.77;;;16.20;63.00;;;;;;5008649;28;20148;-58
2024/04/03 12:39:18;;;;;;;14.07;2.55;;;16.10;62.30;;;;;;5009609;28;20109;-58
2024/04/03 12:41:45;;;;;;;4.18;1.90;;;15.90;65.30;;;;;;5008717;28;20309;-59
2024/04/03 12:44:12;;;;;;;7.85;1.80;;;15.80;65.90;;;;;;5008657;28;20109;-58